Terminal Aerodrome Forecast
Issued by NWS

Home | Current Version | Previous Version | Text Only | Print | Product List | Glossary On
Versions: 1 2 3 4 5 6 7 8 9 10 11 12 13 14 15 16 17 18 19 20 21 22
000
FTUS43 KDVN 252200 AAC
TAFCID
TAF AMD
KCID 252224Z 2522/2618 17006KT P6SM BKN025
     FM260200 14007KT P6SM SCT040
     FM260900 20006KT 6SM BR BKN060
     FM261200 VRB04KT 6SM BR BKN060
     FM261500 01007KT P6SM BKN060=

USA.gov is the U.S. government's official web portal to all federal, state and local government web resources and services.